sensor_id;sensor_type;location;lat;lon;timestamp;temperature;humidity
17346;DHT22;8790;53.590;10.002;2023-04-01T00:00:21;11.70;99.90
17346;DHT22;8790;53.590;10.002;2023-04-01T00:02:52;11.70;99.90
17346;DHT22;8790;53.590;10.002;2023-04-01T00:05:24;11.70;99.90
17346;DHT22;8790;53.590;10.002;2023-04-01T00:07:56;11.70;99.90
17346;DHT22;8790;53.590;10.002;2023-04-01T00:10:27;11.70;99.90
17346;DHT22;8790;53.590;10.002;2023-04-01T00:13:00;11.60;99.90
17346;DHT22;8790;53.590;10.002;2023-04-01T00:15:33;11.60;99.90
17346;DHT22;8790;53.590;10.002;2023-04-01T00:18:04;11.70;99.90
17346;DHT22;8790;53.590;10.002;2023-04-01T00:20:36;11.60;99.90
17346;DHT22;8790;53.590;10.002;2023-04-01T00:23:08;11.60;99.90
17346;DHT22;8790;53.590;10.002;2023-04-01T00:25:40;11.60;99.90
17346;DHT22;8790;53.590;10.002;2023-04-01T00:28:12;11.60;99.90
17346;DHT22;8790;53.590;10.002;2023-04-01T00:30:45;11.60;99.90
17346;DHT22;8790;53.590;10.002;2023-04-01T00:33:17;11.60;99.90
17346;DHT22;8790;53.590;10.002;2023-04-01T00:35:49;11.50;99.90
17346;DHT22;8790;53.590;10.002;2023-04-01T00:38:20;11.50;99.90
17346;DHT22;8790;53.590;10.002;2023-04-01T00:40:57;11.50;99.90
17346;DHT22;8790;53.590;10.002;2023-04-01T00:43:31;11.50;99.90
17346;DHT22;8790;53.590;10.002;2023-04-01T00:46:04;11.50;99.90
17346;DHT22;8790;53.590;10.002;2023-04-01T00:48:39;11.50;99.90
17346;DHT22;8790;53.590;10.002;2023-04-01T00:51:15;11.50;99.90
17346;DHT22;8790;53.590;10.002;2023-04-01T00:53:49;11.50;99.90
17346;DHT22;8790;53.590;10.002;2023-04-01T00:56:24;11.50;99.90
17346;DHT22;8790;53.590;10.002;2023-04-01T00:59:00;11.50;99.90
17346;DHT22;8790;53.590;10.002;2023-04-01T01:01:34;11.40;99.90
17346;DHT22;8790;53.590;10.002;2023-04-01T01:04:07;11.40;99.90
17346;DHT22;8790;53.590;10.002;2023-04-01T01:06:44;11.40;99.90
17346;DHT22;8790;53.590;10.002;2023-04-01T01:09:30;11.40;99.90
17346;DHT22;8790;53.590;10.002;2023-04-01T01:12:07;11.40;99.90
17346;DHT22;8790;53.590;10.002;2023-04-01T01:14:49;11.40;99.90
17346;DHT22;8790;53.590;10.002;2023-04-01T01:17:33;11.40;99.90
17346;DHT22;8790;53.590;10.002;2023-04-01T01:20:31;11.40;99.90
17346;DHT22;8790;53.590;10.002;2023-04-01T01:23:22;11.40;99.90
17346;DHT22;8790;53.590;10.002;2023-04-01T01:26:05;11.40;99.90
17346;DHT22;8790;53.590;10.002;2023-04-01T01:28:48;11.30;99.90
17346;DHT22;8790;53.590;10.002;2023-04-01T01:31:34;11.30;99.90
17346;DHT22;8790;53.590;10.002;2023-04-01T01:34:15;11.30;99.90
17346;DHT22;8790;53.590;10.002;2023-04-01T01:36:53;11.30;99.90
17346;DHT22;8790;53.590;10.002;2023-04-01T01:39:30;11.30;99.90
17346;DHT22;8790;53.590;10.002;2023-04-01T01:42:05;11.30;99.90
17346;DHT22;8790;53.590;10.002;2023-04-01T01:44:39;11.30;99.90
17346;DHT22;8790;53.590;10.002;2023-04-01T01:47:12;11.30;99.90
17346;DHT22;8790;53.590;10.002;2023-04-01T01:49:45;11.30;99.90
17346;DHT22;8790;53.590;10.002;2023-04-01T01:52:18;11.30;99.90
17346;DHT22;8790;53.590;10.002;2023-04-01T01:54:52;11.30;99.90
17346;DHT22;8790;53.590;10.002;2023-04-01T01:57:29;11.20;99.90
17346;DHT22;8790;53.590;10.002;2023-04-01T02:00:07;11.30;99.90
17346;DHT22;8790;53.590;10.002;2023-04-01T02:02:46;11.30;99.90
17346;DHT22;8790;53.590;10.002;2023-04-01T02:05:21;11.30;99.90
17346;DHT22;8790;53.590;10.002;2023-04-01T02:08:00;11.30;99.90
17346;DHT22;8790;53.590;10.002;2023-04-01T02:10:36;11.30;99.90
17346;DHT22;8790;53.590;10.002;2023-04-01T02:13:13;11.30;99.90
17346;DHT22;8790;53.590;10.002;2023-04-01T02:15:49;11.20;99.90
17346;DHT22;8790;53.590;10.002;2023-04-01T02:18:23;11.20;99.90
17346;DHT22;8790;53.590;10.002;2023-04-01T02:20:56;11.30;99.90
17346;DHT22;8790;53.590;10.002;2023-04-01T02:23:30;11.20;99.90
17346;DHT22;8790;53.590;10.002;2023-04-01T02:26:05;11.20;99.90
17346;DHT22;8790;53.590;10.002;2023-04-01T02:28:39;11.20;99.90
17346;DHT22;8790;53.590;10.002;2023-04-01T02:31:13;11.20;99.90
17346;DHT22;8790;53.590;10.002;2023-04-01T02:33:46;11.20;99.90
17346;DHT22;8790;53.590;10.002;2023-04-01T02:36:18;11.20;99.90
17346;DHT22;8790;53.590;10.002;2023-04-01T02:38:52;11.20;99.90
17346;DHT22;8790;53.590;10.002;2023-04-01T02:41:25;11.20;99.90
17346;DHT22;8790;53.590;10.002;2023-04-01T02:43:57;11.20;99.90
17346;DHT22;8790;53.590;10.002;2023-04-01T02:46:29;11.20;99.90
17346;DHT22;8790;53.590;10.002;2023-04-01T02:49:01;11.20;99.90
17346;DHT22;8790;53.590;10.002;2023-04-01T02:51:34;11.20;99.90
17346;DHT22;8790;53.590;10.002;2023-04-01T02:54:07;11.20;99.90
17346;DHT22;8790;53.590;10.002;2023-04-01T02:56:39;11.20;99.90
17346;DHT22;8790;53.590;10.002;2023-04-01T02:59:10;11.20;99.90
17346;DHT22;8790;53.590;10.002;2023-04-01T03:01:42;11.20;99.90
17346;DHT22;8790;53.590;10.002;2023-04-01T03:04:14;11.10;99.90
17346;DHT22;8790;53.590;10.002;2023-04-01T03:06:45;11.10;99.90
17346;DHT22;8790;53.590;10.002;2023-04-01T03:09:18;11.10;99.90
17346;DHT22;8790;53.590;10.002;2023-04-01T03:11:50;11.10;99.90
17346;DHT22;8790;53.590;10.002;2023-04-01T03:14:22;11.10;99.90
17346;DHT22;8790;53.590;10.002;2023-04-01T03:16:53;11.10;99.90
17346;DHT22;8790;53.590;10.002;2023-04-01T03:19:25;11.10;99.90
17346;DHT22;8790;53.590;10.002;2023-04-01T03:21:57;11.20;99.90
17346;DHT22;8790;53.590;10.002;2023-04-01T03:24:30;11.10;99.90
17346;DHT22;8790;53.590;10.002;2023-04-01T03:27:02;11.10;99.90
17346;DHT22;8790;53.590;10.002;2023-04-01T03:29:34;11.10;99.90
17346;DHT22;8790;53.590;10.002;2023-04-01T03:32:06;11.10;99.90
17346;DHT22;8790;53.590;10.002;2023-04-01T03:34:38;11.10;99.90
17346;DHT22;8790;53.590;10.002;2023-04-01T03:37:10;11.10;99.90
17346;DHT22;8790;53.590;10.002;2023-04-01T03:39:43;11.10;99.90
17346;DHT22;8790;53.590;10.002;2023-04-01T03:42:15;11.10;99.90
17346;DHT22;8790;53.590;10.002;2023-04-01T03:44:47;11.10;99.90
17346;DHT22;8790;53.590;10.002;2023-04-01T03:47:19;11.10;99.90
17346;DHT22;8790;53.590;10.002;2023-04-01T03:49:51;11.10;99.90
17346;DHT22;8790;53.590;10.002;2023-04-01T03:52:23;11.10;99.90
17346;DHT22;8790;53.590;10.002;2023-04-01T03:54:57;11.10;99.90
17346;DHT22;8790;53.590;10.002;2023-04-01T03:57:30;11.10;99.90
17346;DHT22;8790;53.590;10.002;2023-04-01T04:00:08;11.10;99.90
17346;DHT22;8790;53.590;10.002;2023-04-01T04:02:44;11.10;99.90
17346;DHT22;8790;53.590;10.002;2023-04-01T04:05:20;11.10;99.90
17346;DHT22;8790;53.590;10.002;2023-04-01T04:07:52;11.00;99.90
17346;DHT22;8790;53.590;10.002;2023-04-01T04:10:25;11.10;99.90
17346;DHT22;8790;53.590;10.002;2023-04-01T04:12:57;11.00;99.90
17346;DHT22;8790;53.590;10.002;2023-04-01T04:15:30;11.10;99.90
17346;DHT22;8790;53.590;10.002;2023-04-01T04:18:02;11.00;99.90
17346;DHT22;8790;53.590;10.002;2023-04-01T04:20:34;11.10;99.90
17346;DHT22;8790;53.590;10.002;2023-04-01T04:23:06;11.00;99.90
17346;DHT22;8790;53.590;10.002;2023-04-01T04:25:40;11.00;99.90
17346;DHT22;8790;53.590;10.002;2023-04-01T04:28:12;11.10;99.90
17346;DHT22;8790;53.590;10.002;2023-04-01T04:30:44;11.10;99.90
17346;DHT22;8790;53.590;10.002;2023-04-01T04:33:16;11.10;99.90
17346;DHT22;8790;53.590;10.002;2023-04-01T04:35:48;11.10;99.90
17346;DHT22;8790;53.590;10.002;2023-04-01T04:38:20;11.10;99.90
17346;DHT22;8790;53.590;10.002;2023-04-01T04:40:53;11.10;99.90
17346;DHT22;8790;53.590;10.002;2023-04-01T04:43:25;11.00;99.90
17346;DHT22;8790;53.590;10.002;2023-04-01T04:45:56;11.00;99.90
17346;DHT22;8790;53.590;10.002;2023-04-01T04:48:28;11.00;99.90
17346;DHT22;8790;53.590;10.002;2023-04-01T04:51:00;11.00;99.90
17346;DHT22;8790;53.590;10.002;2023-04-01T04:53:32;11.00;99.90
17346;DHT22;8790;53.590;10.002;2023-04-01T04:56:05;11.00;99.90
17346;DHT22;8790;53.590;10.002;2023-04-01T04:58:44;11.00;99.90
17346;DHT22;8790;53.590;10.002;2023-04-01T05:01:20;11.10;99.90
17346;DHT22;8790;53.590;10.002;2023-04-01T05:03:52;11.10;99.90
17346;DHT22;8790;53.590;10.002;2023-04-01T05:06:24;11.10;99.90
17346;DHT22;8790;53.590;10.002;2023-04-01T05:08:59;11.10;99.90
17346;DHT22;8790;53.590;10.002;2023-04-01T05:11:32;11.20;99.90
17346;DHT22;8790;53.590;10.002;2023-04-01T05:14:04;11.20;99.90
17346;DHT22;8790;53.590;10.002;2023-04-01T05:16:36;11.20;99.90
17346;DHT22;8790;53.590;10.002;2023-04-01T05:19:08;11.20;99.90
17346;DHT22;8790;53.590;10.002;2023-04-01T05:21:40;11.20;99.90
17346;DHT22;8790;53.590;10.002;2023-04-01T05:24:12;11.30;99.90
17346;DHT22;8790;53.590;10.002;2023-04-01T05:26:45;11.30;99.90
17346;DHT22;8790;53.590;10.002;2023-04-01T05:29:17;11.20;99.90
17346;DHT22;8790;53.590;10.002;2023-04-01T05:31:59;11.20;99.90
17346;DHT22;8790;53.590;10.002;2023-04-01T05:34:32;11.10;99.90
17346;DHT22;8790;53.590;10.002;2023-04-01T05:37:04;11.00;99.90
17346;DHT22;8790;53.590;10.002;2023-04-01T05:39:38;10.90;99.90
17346;DHT22;8790;53.590;10.002;2023-04-01T05:42:11;10.90;99.90
17346;DHT22;8790;53.590;10.002;2023-04-01T05:44:45;10.80;99.90
17346;DHT22;8790;53.590;10.002;2023-04-01T05:47:35;10.80;99.90
17346;DHT22;8790;53.590;10.002;2023-04-01T05:50:08;10.70;99.90
17346;DHT22;8790;53.590;10.002;2023-04-01T05:52:41;10.60;99.90
17346;DHT22;8790;53.590;10.002;2023-04-01T05:55:13;10.70;99.90
17346;DHT22;8790;53.590;10.002;2023-04-01T05:57:46;10.60;99.90
17346;DHT22;8790;53.590;10.002;2023-04-01T06:00:19;10.50;99.90
17346;DHT22;8790;53.590;10.002;2023-04-01T06:02:51;10.50;99.90
17346;DHT22;8790;53.590;10.002;2023-04-01T06:05:27;10.40;99.90
17346;DHT22;8790;53.590;10.002;2023-04-01T06:08:01;10.30;99.90
17346;DHT22;8790;53.590;10.002;2023-04-01T06:10:44;10.10;99.90
17346;DHT22;8790;53.590;10.002;2023-04-01T06:13:30;10.10;99.90
17346;DHT22;8790;53.590;10.002;2023-04-01T06:16:09;10.10;99.90
17346;DHT22;8790;53.590;10.002;2023-04-01T06:18:54;10.00;99.90
17346;DHT22;8790;53.590;10.002;2023-04-01T06:22:11;10.00;99.90
17346;DHT22;8790;53.590;10.002;2023-04-01T06:24:57;9.90;99.90
17346;DHT22;8790;53.590;10.002;2023-04-01T06:27:57;9.90;99.90
17346;DHT22;8790;53.590;10.002;2023-04-01T06:30:39;9.60;99.90
17346;DHT22;8790;53.590;10.002;2023-04-01T06:33:23;9.60;99.90
17346;DHT22;8790;53.590;10.002;2023-04-01T06:36:34;9.60;99.90
17346;DHT22;8790;53.590;10.002;2023-04-01T06:39:26;9.60;99.90
17346;DHT22;8790;53.590;10.002;2023-04-01T06:42:18;9.50;99.90
17346;DHT22;8790;53.590;10.002;2023-04-01T06:45:01;9.50;99.90
17346;DHT22;8790;53.590;10.002;2023-04-01T06:48:07;9.50;99.90
17346;DHT22;8790;53.590;10.002;2023-04-01T06:51:16;9.40;99.90
17346;DHT22;8790;53.590;10.002;2023-04-01T06:54:11;9.30;99.90
17346;DHT22;8790;53.590;10.002;2023-04-01T06:57:08;9.40;99.90
17346;DHT22;8790;53.590;10.002;2023-04-01T06:59:45;9.30;99.90
17346;DHT22;8790;53.590;10.002;2023-04-01T07:02:24;9.40;99.90
17346;DHT22;8790;53.590;10.002;2023-04-01T07:04:59;9.40;99.90
17346;DHT22;8790;53.590;10.002;2023-04-01T07:07:36;9.40;99.90
17346;DHT22;8790;53.590;10.002;2023-04-01T07:10:17;9.30;99.90
17346;DHT22;8790;53.590;10.002;2023-04-01T07:13:15;9.20;99.90
17346;DHT22;8790;53.590;10.002;2023-04-01T07:16:03;9.10;99.90
17346;DHT22;8790;53.590;10.002;2023-04-01T07:18:42;9.00;99.90
17346;DHT22;8790;53.590;10.002;2023-04-01T07:21:23;9.00;99.90
17346;DHT22;8790;53.590;10.002;2023-04-01T07:24:03;9.00;99.90
17346;DHT22;8790;53.590;10.002;2023-04-01T07:26:40;9.00;99.90
17346;DHT22;8790;53.590;10.002;2023-04-01T07:29:14;9.00;99.90
17346;DHT22;8790;53.590;10.002;2023-04-01T07:32:10;8.90;99.90
17346;DHT22;8790;53.590;10.002;2023-04-01T07:34:51;9.00;99.90
17346;DHT22;8790;53.590;10.002;2023-04-01T07:37:32;9.10;99.90
17346;DHT22;8790;53.590;10.002;2023-04-01T07:40:18;9.00;99.90
17346;DHT22;8790;53.590;10.002;2023-04-01T07:43:11;9.00;99.90
17346;DHT22;8790;53.590;10.002;2023-04-01T07:45:59;8.90;99.90
17346;DHT22;8790;53.590;10.002;2023-04-01T07:48:38;8.90;99.90
17346;DHT22;8790;53.590;10.002;2023-04-01T07:51:17;8.90;99.90
17346;DHT22;8790;53.590;10.002;2023-04-01T07:54:00;8.90;99.90
17346;DHT22;8790;53.590;10.002;2023-04-01T07:56:38;8.90;99.90
17346;DHT22;8790;53.590;10.002;2023-04-01T07:59:19;9.00;99.90
17346;DHT22;8790;53.590;10.002;2023-04-01T08:02:10;9.00;99.90
17346;DHT22;8790;53.590;10.002;2023-04-01T08:04:58;8.90;99.90
17346;DHT22;8790;53.590;10.002;2023-04-01T08:07:40;8.90;99.90
17346;DHT22;8790;53.590;10.002;2023-04-01T08:10:40;8.90;99.90
17346;DHT22;8790;53.590;10.002;2023-04-01T08:13:46;8.80;99.90
17346;DHT22;8790;53.590;10.002;2023-04-01T08:17:02;8.80;99.90
17346;DHT22;8790;53.590;10.002;2023-04-01T08:19:53;8.80;99.90
17346;DHT22;8790;53.590;10.002;2023-04-01T08:22:34;8.90;99.90
17346;DHT22;8790;53.590;10.002;2023-04-01T08:25:16;8.90;99.90
17346;DHT22;8790;53.590;10.002;2023-04-01T08:27:53;9.00;99.90
17346;DHT22;8790;53.590;10.002;2023-04-01T08:30:30;8.90;99.90
17346;DHT22;8790;53.590;10.002;2023-04-01T08:33:09;8.90;99.90
17346;DHT22;8790;53.590;10.002;2023-04-01T08:35:46;8.80;99.90
17346;DHT22;8790;53.590;10.002;2023-04-01T08:38:24;8.90;99.90
17346;DHT22;8790;53.590;10.002;2023-04-01T08:41:14;8.80;99.90
17346;DHT22;8790;53.590;10.002;2023-04-01T08:44:34;8.90;99.90
17346;DHT22;8790;53.590;10.002;2023-04-01T08:47:24;8.80;99.90
17346;DHT22;8790;53.590;10.002;2023-04-01T08:53:18;8.90;99.90
17346;DHT22;8790;53.590;10.002;2023-04-01T08:56:03;8.80;99.90
17346;DHT22;8790;53.590;10.002;2023-04-01T08:58:57;8.80;99.90
17346;DHT22;8790;53.590;10.002;2023-04-01T09:01:45;8.70;99.90
17346;DHT22;8790;53.590;10.002;2023-04-01T09:05:12;8.70;99.90
17346;DHT22;8790;53.590;10.002;2023-04-01T09:07:59;8.80;99.90
17346;DHT22;8790;53.590;10.002;2023-04-01T09:11:04;8.80;99.90
17346;DHT22;8790;53.590;10.002;2023-04-01T09:14:10;8.80;99.90
17346;DHT22;8790;53.590;10.002;2023-04-01T09:17:31;8.80;99.90
17346;DHT22;8790;53.590;10.002;2023-04-01T09:20:23;8.80;99.90
17346;DHT22;8790;53.590;10.002;2023-04-01T09:23:13;8.80;99.90
17346;DHT22;8790;53.590;10.002;2023-04-01T09:25:53;8.80;99.90
17346;DHT22;8790;53.590;10.002;2023-04-01T09:28:36;8.80;99.90
17346;DHT22;8790;53.590;10.002;2023-04-01T09:34:52;8.80;99.90
17346;DHT22;8790;53.590;10.002;2023-04-01T09:37:34;8.90;99.90
17346;DHT22;8790;53.590;10.002;2023-04-01T09:40:18;8.90;99.90
17346;DHT22;8790;53.590;10.002;2023-04-01T09:46:19;8.90;99.90
17346;DHT22;8790;53.590;10.002;2023-04-01T09:49:13;9.00;99.90
17346;DHT22;8790;53.590;10.002;2023-04-01T09:52:00;9.00;99.90
17346;DHT22;8790;53.590;10.002;2023-04-01T09:54:47;9.00;99.90
17346;DHT22;8790;53.590;10.002;2023-04-01T09:57:39;9.00;99.90
17346;DHT22;8790;53.590;10.002;2023-04-01T10:04:00;9.10;99.90
17346;DHT22;8790;53.590;10.002;2023-04-01T10:10:26;9.10;99.90
17346;DHT22;8790;53.590;10.002;2023-04-01T10:16:26;9.10;99.90
17346;DHT22;8790;53.590;10.002;2023-04-01T10:19:16;9.10;99.90
17346;DHT22;8790;53.590;10.002;2023-04-01T10:22:14;9.00;99.90
17346;DHT22;8790;53.590;10.002;2023-04-01T10:28:18;9.10;99.90
17346;DHT22;8790;53.590;10.002;2023-04-01T10:31:50;9.10;99.90
17346;DHT22;8790;53.590;10.002;2023-04-01T10:34:54;9.20;99.90
17346;DHT22;8790;53.590;10.002;2023-04-01T10:37:52;9.20;99.90
17346;DHT22;8790;53.590;10.002;2023-04-01T10:40:42;9.10;99.90
17346;DHT22;8790;53.590;10.002;2023-04-01T10:44:17;9.10;99.90
17346;DHT22;8790;53.590;10.002;2023-04-01T10:50:33;9.10;99.90
17346;DHT22;8790;53.590;10.002;2023-04-01T10:53:30;9.10;99.90
17346;DHT22;8790;53.590;10.002;2023-04-01T10:56:54;9.30;99.90
17346;DHT22;8790;53.590;10.002;2023-04-01T11:00:14;9.40;99.90
17346;DHT22;8790;53.590;10.002;2023-04-01T11:07:08;9.20;99.90
17346;DHT22;8790;53.590;10.002;2023-04-01T11:10:09;9.20;99.90
17346;DHT22;8790;53.590;10.002;2023-04-01T11:13:14;9.10;99.90
17346;DHT22;8790;53.590;10.002;2023-04-01T11:16:19;9.10;99.90
17346;DHT22;8790;53.590;10.002;2023-04-01T11:19:17;9.20;99.90
17346;DHT22;8790;53.590;10.002;2023-04-01T11:22:19;9.20;99.90
17346;DHT22;8790;53.590;10.002;2023-04-01T11:25:17;9.20;99.90
17346;DHT22;8790;53.590;10.002;2023-04-01T11:28:34;9.10;99.90
17346;DHT22;8790;53.590;10.002;2023-04-01T11:31:25;9.10;99.90
17346;DHT22;8790;53.590;10.002;2023-04-01T11:34:09;9.10;99.90
17346;DHT22;8790;53.590;10.002;2023-04-01T11:36:48;9.10;99.90
17346;DHT22;8790;53.590;10.002;2023-04-01T11:39:33;9.10;99.90
17346;DHT22;8790;53.590;10.002;2023-04-01T12:19:10;8.50;99.90
17346;DHT22;8790;53.590;10.002;2023-04-01T12:21:52;8.50;99.90
17346;DHT22;8790;53.590;10.002;2023-04-01T12:24:46;8.50;99.90
17346;DHT22;8790;53.590;10.002;2023-04-01T12:27:34;8.40;99.90
17346;DHT22;8790;53.590;10.002;2023-04-01T12:30:30;8.50;99.90
17346;DHT22;8790;53.590;10.002;2023-04-01T12:33:16;8.50;99.90
17346;DHT22;8790;53.590;10.002;2023-04-01T12:36:00;8.50;99.90
17346;DHT22;8790;53.590;10.002;2023-04-01T12:38:44;8.50;99.90
17346;DHT22;8790;53.590;10.002;2023-04-01T12:41:26;8.60;99.90
17346;DHT22;8790;53.590;10.002;2023-04-01T12:44:16;8.60;99.90
17346;DHT22;8790;53.590;10.002;2023-04-01T12:47:07;8.60;99.90
17346;DHT22;8790;53.590;10.002;2023-04-01T12:50:01;8.60;99.90
17346;DHT22;8790;53.590;10.002;2023-04-01T12:52:43;8.60;99.90
17346;DHT22;8790;53.590;10.002;2023-04-01T12:55:35;8.50;99.90
17346;DHT22;8790;53.590;10.002;2023-04-01T13:01:29;8.50;99.90
17346;DHT22;8790;53.590;10.002;2023-04-01T13:10:08;8.50;99.90
17346;DHT22;8790;53.590;10.002;2023-04-01T13:13:18;8.60;99.90
17346;DHT22;8790;53.590;10.002;2023-04-01T13:15:52;8.60;99.90
17346;DHT22;8790;53.590;10.002;2023-04-01T13:18:33;8.60;99.90
17346;DHT22;8790;53.590;10.002;2023-04-01T13:21:14;8.50;99.90
17346;DHT22;8790;53.590;10.002;2023-04-01T13:23:55;8.60;99.90
17346;DHT22;8790;53.590;10.002;2023-04-01T13:26:37;8.50;99.90
17346;DHT22;8790;53.590;10.002;2023-04-01T13:29:14;8.50;99.90
17346;DHT22;8790;53.590;10.002;2023-04-01T13:32:00;8.50;99.90
17346;DHT22;8790;53.590;10.002;2023-04-01T13:34:46;8.50;99.90
17346;DHT22;8790;53.590;10.002;2023-04-01T13:37:27;8.50;99.90
17346;DHT22;8790;53.590;10.002;2023-04-01T13:40:23;8.50;99.90
17346;DHT22;8790;53.590;10.002;2023-04-01T13:43:02;8.50;99.90
17346;DHT22;8790;53.590;10.002;2023-04-01T13:45:46;8.40;99.90
17346;DHT22;8790;53.590;10.002;2023-04-01T13:48:38;8.40;99.90
17346;DHT22;8790;53.590;10.002;2023-04-01T13:52:02;8.40;99.90
17346;DHT22;8790;53.590;10.002;2023-04-01T13:54:56;8.30;99.90
17346;DHT22;8790;53.590;10.002;2023-04-01T13:57:52;8.30;99.90
17346;DHT22;8790;53.590;10.002;2023-04-01T14:00:38;8.30;99.90
17346;DHT22;8790;53.590;10.002;2023-04-01T14:06:17;8.30;99.90
17346;DHT22;8790;53.590;10.002;2023-04-01T14:09:24;8.20;99.90
17346;DHT22;8790;53.590;10.002;2023-04-01T14:12:07;8.20;99.90
17346;DHT22;8790;53.590;10.002;2023-04-01T14:14:52;8.10;99.90
17346;DHT22;8790;53.590;10.002;2023-04-01T14:17:41;8.10;99.90
17346;DHT22;8790;53.590;10.002;2023-04-01T14:20:25;8.20;99.90
17346;DHT22;8790;53.590;10.002;2023-04-01T14:23:18;8.20;99.90
17346;DHT22;8790;53.590;10.002;2023-04-01T14:29:07;8.30;99.90
17346;DHT22;8790;53.590;10.002;2023-04-01T14:31:53;8.20;99.90
17346;DHT22;8790;53.590;10.002;2023-04-01T14:34:40;8.30;99.90
17346;DHT22;8790;53.590;10.002;2023-04-01T14:37:26;8.30;99.90
17346;DHT22;8790;53.590;10.002;2023-04-01T14:40:26;8.20;99.90
17346;DHT22;8790;53.590;10.002;2023-04-01T14:43:13;8.20;99.90
17346;DHT22;8790;53.590;10.002;2023-04-01T14:45:59;8.20;99.90
17346;DHT22;8790;53.590;10.002;2023-04-01T14:48:37;8.30;99.90
17346;DHT22;8790;53.590;10.002;2023-04-01T14:51:16;8.20;99.90
17346;DHT22;8790;53.590;10.002;2023-04-01T14:53:56;8.20;99.90
17346;DHT22;8790;53.590;10.002;2023-04-01T14:56:41;8.10;99.90
17346;DHT22;8790;53.590;10.002;2023-04-01T14:59:17;8.10;99.90
17346;DHT22;8790;53.590;10.002;2023-04-01T15:02:01;8.10;99.90
17346;DHT22;8790;53.590;10.002;2023-04-01T15:04:44;8.10;99.90
17346;DHT22;8790;53.590;10.002;2023-04-01T15:10:28;8.10;99.90
17346;DHT22;8790;53.590;10.002;2023-04-01T15:13:12;8.00;99.90
17346;DHT22;8790;53.590;10.002;2023-04-01T15:15:59;8.10;99.90
17346;DHT22;8790;53.590;10.002;2023-04-01T15:18:41;8.10;99.90
17346;DHT22;8790;53.590;10.002;2023-04-01T15:21:23;8.10;99.90
17346;DHT22;8790;53.590;10.002;2023-04-01T15:24:04;8.10;99.90
17346;DHT22;8790;53.590;10.002;2023-04-01T15:26:51;7.90;99.90
17346;DHT22;8790;53.590;10.002;2023-04-01T15:29:43;8.00;99.90
17346;DHT22;8790;53.590;10.002;2023-04-01T15:32:23;7.90;99.90
17346;DHT22;8790;53.590;10.002;2023-04-01T15:35:03;7.80;99.90
17346;DHT22;8790;53.590;10.002;2023-04-01T15:37:45;7.70;99.90
17346;DHT22;8790;53.590;10.002;2023-04-01T15:40:24;7.80;99.90
17346;DHT22;8790;53.590;10.002;2023-04-01T15:43:11;7.80;99.90
17346;DHT22;8790;53.590;10.002;2023-04-01T15:45:56;7.70;99.90
17346;DHT22;8790;53.590;10.002;2023-04-01T15:48:39;7.60;99.90
17346;DHT22;8790;53.590;10.002;2023-04-01T15:51:22;7.70;99.90
17346;DHT22;8790;53.590;10.002;2023-04-01T15:54:05;7.70;99.90
17346;DHT22;8790;53.590;10.002;2023-04-01T15:56:54;7.70;99.90
17346;DHT22;8790;53.590;10.002;2023-04-01T15:59:51;7.60;99.90
17346;DHT22;8790;53.590;10.002;2023-04-01T16:02:31;7.60;99.90
17346;DHT22;8790;53.590;10.002;2023-04-01T16:05:07;7.50;99.90
17346;DHT22;8790;53.590;10.002;2023-04-01T16:07:52;7.50;99.90
17346;DHT22;8790;53.590;10.002;2023-04-01T16:10:37;7.50;99.90
17346;DHT22;8790;53.590;10.002;2023-04-01T16:13:30;7.40;99.90
17346;DHT22;8790;53.590;10.002;2023-04-01T16:16:17;7.40;99.90
17346;DHT22;8790;53.590;10.002;2023-04-01T16:19:15;7.30;99.90
17346;DHT22;8790;53.590;10.002;2023-04-01T16:21:54;7.30;99.90
17346;DHT22;8790;53.590;10.002;2023-04-01T16:24:34;7.30;99.90
17346;DHT22;8790;53.590;10.002;2023-04-01T16:27:12;7.30;99.90
17346;DHT22;8790;53.590;10.002;2023-04-01T16:29:48;7.20;99.90
17346;DHT22;8790;53.590;10.002;2023-04-01T16:32:31;7.20;99.90
17346;DHT22;8790;53.590;10.002;2023-04-01T16:35:28;7.20;99.90
17346;DHT22;8790;53.590;10.002;2023-04-01T16:38:07;7.30;99.90
17346;DHT22;8790;53.590;10.002;2023-04-01T16:40:49;7.20;99.90
17346;DHT22;8790;53.590;10.002;2023-04-01T16:43:28;7.20;99.90
17346;DHT22;8790;53.590;10.002;2023-04-01T16:46:21;7.30;99.90
17346;DHT22;8790;53.590;10.002;2023-04-01T16:49:27;7.30;99.90
17346;DHT22;8790;53.590;10.002;2023-04-01T16:52:16;7.30;99.90
17346;DHT22;8790;53.590;10.002;2023-04-01T16:54:53;7.20;99.90
17346;DHT22;8790;53.590;10.002;2023-04-01T16:57:35;7.10;99.90
17346;DHT22;8790;53.590;10.002;2023-04-01T17:00:16;7.20;99.90
17346;DHT22;8790;53.590;10.002;2023-04-01T17:02:57;7.20;99.90
17346;DHT22;8790;53.590;10.002;2023-04-01T17:05:42;7.20;99.90
17346;DHT22;8790;53.590;10.002;2023-04-01T17:08:24;7.20;99.90
17346;DHT22;8790;53.590;10.002;2023-04-01T17:11:04;7.20;99.90
17346;DHT22;8790;53.590;10.002;2023-04-01T17:13:46;7.20;99.90
17346;DHT22;8790;53.590;10.002;2023-04-01T17:16:52;7.20;99.90
17346;DHT22;8790;53.590;10.002;2023-04-01T17:19:38;7.30;99.90
17346;DHT22;8790;53.590;10.002;2023-04-01T17:22:21;7.20;99.90
17346;DHT22;8790;53.590;10.002;2023-04-01T17:25:07;7.20;99.90
17346;DHT22;8790;53.590;10.002;2023-04-01T17:27:47;7.30;99.90
17346;DHT22;8790;53.590;10.002;2023-04-01T17:30:32;7.30;99.90
17346;DHT22;8790;53.590;10.002;2023-04-01T17:33:22;7.20;99.90
17346;DHT22;8790;53.590;10.002;2023-04-01T17:36:01;7.10;99.90
17346;DHT22;8790;53.590;10.002;2023-04-01T17:38:57;7.20;99.90
17346;DHT22;8790;53.590;10.002;2023-04-01T17:41:42;7.20;99.90
17346;DHT22;8790;53.590;10.002;2023-04-01T17:44:21;7.20;99.90
17346;DHT22;8790;53.590;10.002;2023-04-01T17:47:11;7.20;99.90
17346;DHT22;8790;53.590;10.002;2023-04-01T17:49:52;7.10;99.90
17346;DHT22;8790;53.590;10.002;2023-04-01T17:52:31;7.10;99.90
17346;DHT22;8790;53.590;10.002;2023-04-01T17:58:17;7.10;99.90
17346;DHT22;8790;53.590;10.002;2023-04-01T18:01:08;7.10;99.90
17346;DHT22;8790;53.590;10.002;2023-04-01T18:04:11;7.10;99.90
17346;DHT22;8790;53.590;10.002;2023-04-01T18:07:02;7.10;99.90
17346;DHT22;8790;53.590;10.002;2023-04-01T18:09:45;7.10;99.90
17346;DHT22;8790;53.590;10.002;2023-04-01T18:12:30;7.10;99.90
17346;DHT22;8790;53.590;10.002;2023-04-01T18:15:21;7.10;99.90
17346;DHT22;8790;53.590;10.002;2023-04-01T18:18:11;7.00;99.90
17346;DHT22;8790;53.590;10.002;2023-04-01T18:20:53;7.10;99.90
17346;DHT22;8790;53.590;10.002;2023-04-01T18:23:30;7.00;99.90
17346;DHT22;8790;53.590;10.002;2023-04-01T18:26:11;6.90;99.90
17346;DHT22;8790;53.590;10.002;2023-04-01T18:28:49;6.80;99.90
17346;DHT22;8790;53.590;10.002;2023-04-01T18:31:26;6.90;99.90
17346;DHT22;8790;53.590;10.002;2023-04-01T18:34:10;6.80;99.90
17346;DHT22;8790;53.590;10.002;2023-04-01T18:36:49;6.80;99.90
17346;DHT22;8790;53.590;10.002;2023-04-01T18:39:32;6.80;99.90
17346;DHT22;8790;53.590;10.002;2023-04-01T18:42:14;6.90;99.90
17346;DHT22;8790;53.590;10.002;2023-04-01T18:44:50;6.90;99.90
17346;DHT22;8790;53.590;10.002;2023-04-01T18:47:30;6.80;99.90